createdAt,value
2023-03-29T00:01:11.849Z,-2.34
2023-03-29T00:03:25.105Z,-2.35
2023-03-29T00:05:23.115Z,-2.36
2023-03-29T00:07:16.083Z,-2.36
2023-03-29T00:09:10.117Z,-2.38
2023-03-29T00:11:03.372Z,-2.39
2023-03-29T00:12:56.566Z,-2.40
2023-03-29T00:14:49.417Z,-2.42
2023-03-29T00:16:44.815Z,-2.43
2023-03-29T00:18:37.968Z,-2.44
2023-03-29T00:20:30.918Z,-2.45
2023-03-29T00:22:24.039Z,-2.46
2023-03-29T00:24:17.017Z,-2.48
2023-03-29T00:26:09.813Z,-2.49
2023-03-29T00:28:02.711Z,-2.51
2023-03-29T00:29:56.582Z,-2.53
2023-03-29T00:31:54.423Z,-2.57
2023-03-29T00:33:47.601Z,-2.58
2023-03-29T00:35:40.854Z,-2.58
2023-03-29T00:37:34.055Z,-2.60
2023-03-29T00:39:28.058Z,-2.63
2023-03-29T00:41:21.655Z,-2.66
2023-03-29T00:43:16.032Z,-2.71
2023-03-29T00:45:12.049Z,-2.74
2023-03-29T00:47:04.989Z,-2.77
2023-03-29T00:49:05.924Z,-2.79
2023-03-29T00:51:09.835Z,-2.78
2023-03-29T00:53:22.131Z,-2.77
2023-03-29T00:55:21.733Z,-2.76
2023-03-29T00:57:18.101Z,-2.76
2023-03-29T00:59:18.898Z,-2.76
2023-03-29T01:01:17.543Z,-2.79
2023-03-29T01:03:24.877Z,-2.84
2023-03-29T01:05:34.526Z,-2.89
2023-03-29T01:07:35.420Z,-2.94
2023-03-29T01:09:31.223Z,-2.96
2023-03-29T01:11:31.965Z,-2.95
2023-03-29T01:14:00.258Z,-2.97
2023-03-29T01:15:56.610Z,-3.01
2023-03-29T01:17:54.036Z,-3.03
2023-03-29T01:19:58.310Z,-3.04
2023-03-29T01:22:16.193Z,-3.06
2023-03-29T01:24:38.250Z,-3.09
2023-03-29T01:26:51.245Z,-3.14
2023-03-29T01:28:53.260Z,-3.18
2023-03-29T01:30:56.705Z,-3.19
2023-03-29T01:32:57.204Z,-3.18
2023-03-29T01:34:57.720Z,-3.17
2023-03-29T01:37:26.692Z,-3.16
2023-03-29T01:39:22.143Z,-3.12
2023-03-29T01:41:15.915Z,-3.13
2023-03-29T01:43:21.914Z,-3.13
2023-03-29T01:45:24.654Z,-3.14
2023-03-29T01:47:26.320Z,-3.13
2023-03-29T01:49:29.283Z,-3.12
2023-03-29T01:51:29.445Z,-3.11
2023-03-29T01:53:41.495Z,-3.09
2023-03-29T01:55:39.860Z,-3.08
2023-03-29T01:57:34.662Z,-3.08
2023-03-29T01:59:32.453Z,-3.08
2023-03-29T02:01:30.635Z,-3.08
2023-03-29T02:03:31.062Z,-3.09
2023-03-29T02:05:26.612Z,-3.13
2023-03-29T02:07:30.635Z,-3.16
2023-03-29T02:09:23.990Z,-3.18
2023-03-29T02:11:17.552Z,-3.17
2023-03-29T02:13:10.604Z,-3.17
2023-03-29T02:15:07.249Z,-3.17
2023-03-29T02:17:24.365Z,-3.16
2023-03-29T02:19:18.836Z,-3.15
2023-03-29T02:21:21.388Z,-3.16
2023-03-29T02:23:24.495Z,-3.17
2023-03-29T02:25:18.711Z,-3.17
2023-03-29T02:27:12.441Z,-3.17
2023-03-29T02:29:07.032Z,-3.17
2023-03-29T02:31:12.282Z,-3.18
2023-03-29T02:33:14.120Z,-3.17
2023-03-29T02:35:14.372Z,-3.19
2023-03-29T02:37:13.060Z,-3.20
2023-03-29T02:39:08.303Z,-3.21
2023-03-29T02:41:02.354Z,-3.22
2023-03-29T02:42:57.748Z,-3.22
2023-03-29T02:44:54.630Z,-3.22
2023-03-29T02:46:51.010Z,-3.25
2023-03-29T02:48:48.635Z,-3.31
2023-03-29T02:50:45.572Z,-3.37
2023-03-29T02:52:46.206Z,-3.41
2023-03-29T02:54:43.440Z,-3.46
2023-03-29T02:56:48.463Z,-3.48
2023-03-29T02:58:41.533Z,-3.50
2023-03-29T03:00:38.321Z,-3.51
2023-03-29T03:02:31.464Z,-3.52
2023-03-29T03:04:25.715Z,-3.50
2023-03-29T03:06:18.614Z,-3.52
2023-03-29T03:08:11.607Z,-3.53
2023-03-29T03:10:05.175Z,-3.54
2023-03-29T03:11:58.063Z,-3.53
2023-03-29T03:13:51.880Z,-3.54
2023-03-29T03:15:48.959Z,-3.54
2023-03-29T03:17:42.183Z,-3.54
2023-03-29T03:19:35.035Z,-3.51
2023-03-29T03:21:28.407Z,-3.49
2023-03-29T03:23:21.428Z,-3.47
2023-03-29T03:25:16.926Z,-3.45
2023-03-29T03:27:09.733Z,-3.44
2023-03-29T03:29:02.945Z,-3.42
2023-03-29T03:31:22.678Z,-3.40
2023-03-29T03:33:35.012Z,-3.39
2023-03-29T03:35:48.106Z,-3.40
2023-03-29T03:37:42.218Z,-3.42
2023-03-29T03:39:35.368Z,-3.43
2023-03-29T03:41:28.925Z,-3.44
2023-03-29T03:43:22.180Z,-3.44
2023-03-29T03:45:15.643Z,-3.44
2023-03-29T03:47:17.497Z,-3.45
2023-03-29T03:49:10.548Z,-3.44
2023-03-29T03:51:06.158Z,-3.43
2023-03-29T03:52:59.922Z,-3.41
2023-03-29T03:54:53.324Z,-3.39
2023-03-29T03:57:01.243Z,-3.39
2023-03-29T03:59:05.506Z,-3.41
2023-03-29T04:01:08.988Z,-3.42
2023-03-29T04:03:06.241Z,-3.44
2023-03-29T04:05:03.795Z,-3.45
2023-03-29T04:07:04.129Z,-3.49
2023-03-29T04:09:02.906Z,-3.55
2023-03-29T04:11:02.899Z,-3.60
2023-03-29T04:13:02.528Z,-3.63
2023-03-29T04:14:56.186Z,-3.65
2023-03-29T04:16:50.980Z,-3.64
2023-03-29T04:19:04.097Z,-3.59
2023-03-29T04:20:57.147Z,-3.55
2023-03-29T04:22:51.325Z,-3.50
2023-03-29T04:24:45.097Z,-3.45
2023-03-29T04:27:04.153Z,-3.39
2023-03-29T04:28:57.308Z,-3.35
2023-03-29T04:31:12.520Z,-3.30
2023-03-29T04:33:34.516Z,-3.26
2023-03-29T04:35:27.862Z,-3.24
2023-03-29T04:37:22.142Z,-3.23
2023-03-29T04:39:18.173Z,-3.22
2023-03-29T04:41:13.677Z,-3.21
2023-03-29T04:43:23.746Z,-3.20
2023-03-29T04:45:31.529Z,-3.20
2023-03-29T04:47:32.960Z,-3.24
2023-03-29T04:49:36.364Z,-3.24
2023-03-29T04:51:33.310Z,-3.26
2023-03-29T04:53:26.458Z,-3.28
2023-03-29T04:55:19.918Z,-3.30
2023-03-29T04:57:18.867Z,-3.27
2023-03-29T04:59:24.757Z,-3.21
2023-03-29T05:01:18.196Z,-3.14
2023-03-29T05:03:18.739Z,-3.07
2023-03-29T05:05:22.966Z,-3.04
2023-03-29T05:07:18.050Z,-2.98
2023-03-29T05:09:11.022Z,-2.95
2023-03-29T05:11:15.430Z,-2.91
2023-03-29T05:13:08.672Z,-2.89
2023-03-29T05:15:01.522Z,-2.85
2023-03-29T05:16:54.568Z,-2.83
2023-03-29T05:18:47.418Z,-2.81
2023-03-29T05:20:40.780Z,-2.79
2023-03-29T05:22:36.485Z,-2.78
2023-03-29T05:24:29.321Z,-2.75
2023-03-29T05:26:29.958Z,-2.72
2023-03-29T05:28:23.534Z,-2.68
2023-03-29T05:30:16.576Z,-2.62
2023-03-29T05:32:20.889Z,-2.55
2023-03-29T05:34:13.936Z,-2.50
2023-03-29T05:36:16.563Z,-2.43
2023-03-29T05:38:13.762Z,-2.38
2023-03-29T05:40:10.277Z,-2.32
2023-03-29T05:42:22.425Z,-2.27
2023-03-29T05:44:20.046Z,-2.21
2023-03-29T05:46:16.642Z,-2.16
2023-03-29T05:48:14.444Z,-2.12
2023-03-29T05:50:10.444Z,-2.08
2023-03-29T05:52:04.132Z,-2.03
2023-03-29T05:53:58.435Z,-2.00
2023-03-29T05:55:53.643Z,-1.94
2023-03-29T05:57:47.701Z,-1.87
2023-03-29T05:59:40.629Z,-1.79
2023-03-29T06:01:35.014Z,-1.68
2023-03-29T06:03:31.486Z,-1.58
2023-03-29T06:05:26.361Z,-1.49
2023-03-29T06:07:27.486Z,-1.39
2023-03-29T06:09:41.075Z,-1.28
2023-03-29T06:11:35.002Z,-1.22
2023-03-29T06:13:46.051Z,-1.11
2023-03-29T06:15:39.154Z,-1.01
2023-03-29T06:17:34.673Z,-0.92
2023-03-29T06:19:27.602Z,-0.82
2023-03-29T06:21:22.506Z,-0.70
2023-03-29T06:23:15.608Z,-0.58
2023-03-29T06:25:11.090Z,-0.43
2023-03-29T06:27:04.410Z,-0.27
2023-03-29T06:28:57.564Z,-0.12
2023-03-29T06:30:51.101Z,0.06
2023-03-29T06:32:44.207Z,0.22
2023-03-29T06:34:48.601Z,0.38
2023-03-29T06:36:55.059Z,0.56
2023-03-29T06:38:48.116Z,0.71
2023-03-29T06:41:07.481Z,0.86
2023-03-29T06:43:17.426Z,0.99
2023-03-29T06:45:23.277Z,1.12
2023-03-29T06:47:20.324Z,1.22
2023-03-29T06:49:13.884Z,1.34
2023-03-29T06:51:24.443Z,1.45
2023-03-29T06:53:17.392Z,1.55
2023-03-29T06:55:16.076Z,1.64
2023-03-29T06:57:08.959Z,1.76
2023-03-29T06:59:01.981Z,1.83
2023-03-29T07:01:02.505Z,1.92
2023-03-29T07:03:23.868Z,1.98
2023-03-29T07:05:20.447Z,2.01
2023-03-29T07:07:20.730Z,2.03
2023-03-29T07:09:19.624Z,2.07
2023-03-29T07:11:31.644Z,2.12
2023-03-29T07:13:33.709Z,2.23
2023-03-29T07:15:28.882Z,2.34
2023-03-29T07:17:41.244Z,2.46
2023-03-29T07:19:37.433Z,2.56
2023-03-29T07:21:41.646Z,2.67
2023-03-29T07:23:35.014Z,2.81
2023-03-29T07:25:30.103Z,3.01
2023-03-29T07:27:24.280Z,3.23
2023-03-29T07:29:17.227Z,3.50
2023-03-29T07:31:12.223Z,3.79
2023-03-29T07:33:10.864Z,4.14
2023-03-29T07:35:09.503Z,4.48
2023-03-29T07:37:02.437Z,4.70
2023-03-29T07:38:57.267Z,4.91
2023-03-29T07:40:50.625Z,5.17
2023-03-29T07:43:11.177Z,5.45
2023-03-29T07:45:08.741Z,5.63
2023-03-29T07:47:07.317Z,5.82
2023-03-29T07:49:03.743Z,5.99
2023-03-29T07:50:57.335Z,6.15
2023-03-29T07:52:56.939Z,6.31
2023-03-29T07:54:50.063Z,6.44
2023-03-29T07:56:53.261Z,6.59
2023-03-29T07:58:50.613Z,6.75
2023-03-29T08:00:43.815Z,6.90
2023-03-29T08:03:00.941Z,7.04
2023-03-29T08:04:54.689Z,7.15
2023-03-29T08:06:56.824Z,7.30
2023-03-29T08:08:54.566Z,7.50
2023-03-29T08:10:47.510Z,7.69
2023-03-29T08:12:58.651Z,7.88
2023-03-29T08:14:56.690Z,7.98
2023-03-29T08:16:54.899Z,8.10
2023-03-29T08:18:47.876Z,8.30
2023-03-29T08:20:40.932Z,8.52
2023-03-29T08:22:34.698Z,8.60
2023-03-29T08:24:45.358Z,8.57
2023-03-29T08:26:38.722Z,8.61
2023-03-29T08:28:32.279Z,8.59
2023-03-29T08:30:26.047Z,8.63
2023-03-29T08:32:18.930Z,8.72
2023-03-29T08:34:11.724Z,8.89
2023-03-29T08:36:15.073Z,9.04
2023-03-29T08:38:10.550Z,9.16
2023-03-29T08:40:04.453Z,9.31
2023-03-29T08:42:56.963Z,9.45
2023-03-29T08:45:06.491Z,9.54
2023-03-29T08:47:16.743Z,9.57
2023-03-29T08:49:12.441Z,9.57
2023-03-29T08:51:29.878Z,9.60
2023-03-29T08:53:30.709Z,9.68
2023-03-29T08:55:43.421Z,9.69
2023-03-29T08:58:02.483Z,9.70
2023-03-29T08:59:59.786Z,9.67
2023-03-29T09:01:55.991Z,9.69
2023-03-29T09:03:58.491Z,9.77
2023-03-29T09:06:09.780Z,9.87
2023-03-29T09:08:03.370Z,9.91
2023-03-29T09:09:57.329Z,9.87
2023-03-29T09:12:18.663Z,9.78
2023-03-29T09:14:52.738Z,9.77
2023-03-29T09:17:03.953Z,9.82
2023-03-29T09:19:21.882Z,9.84
2023-03-29T09:21:44.111Z,9.85
2023-03-29T09:23:47.100Z,9.86
2023-03-29T09:25:54.138Z,9.86
2023-03-29T09:28:03.506Z,9.90
2023-03-29T09:30:32.293Z,9.90
2023-03-29T09:32:36.621Z,9.81
2023-03-29T09:34:50.447Z,9.78
2023-03-29T09:36:54.568Z,9.82
2023-03-29T09:38:51.151Z,9.77
2023-03-29T09:40:54.084Z,9.73
2023-03-29T09:42:51.607Z,9.72
2023-03-29T09:44:51.028Z,9.71
2023-03-29T09:46:56.066Z,9.71
2023-03-29T09:48:50.950Z,9.72
2023-03-29T09:50:47.614Z,9.75
2023-03-29T09:52:41.047Z,9.76
2023-03-29T09:54:40.754Z,9.77
2023-03-29T09:56:52.866Z,9.77
2023-03-29T09:58:47.335Z,9.81
2023-03-29T10:00:42.842Z,9.86
2023-03-29T10:02:36.458Z,9.87
2023-03-29T10:04:29.713Z,9.92
2023-03-29T10:06:27.016Z,10.05
2023-03-29T10:08:31.532Z,10.13
2023-03-29T10:10:32.046Z,10.26
2023-03-29T10:12:25.415Z,10.45
2023-03-29T10:14:21.521Z,10.55
2023-03-29T10:16:21.353Z,10.55
2023-03-29T10:18:14.393Z,10.52
2023-03-29T10:20:14.263Z,10.51
2023-03-29T10:22:16.580Z,10.46
2023-03-29T10:24:10.139Z,10.48
2023-03-29T10:26:06.980Z,10.44
2023-03-29T10:28:21.305Z,10.38
2023-03-29T10:30:23.977Z,10.40
2023-03-29T10:32:26.192Z,10.36
2023-03-29T10:34:25.302Z,10.38
2023-03-29T10:36:18.351Z,10.46
2023-03-29T10:38:14.998Z,10.50
2023-03-29T10:40:19.171Z,10.53
2023-03-29T10:42:16.817Z,10.52
2023-03-29T10:44:32.955Z,10.54
2023-03-29T10:46:33.707Z,10.65
2023-03-29T10:48:31.899Z,10.85
2023-03-29T10:50:27.190Z,10.99
2023-03-29T10:52:21.602Z,11.09
2023-03-29T10:54:20.409Z,11.16
2023-03-29T10:56:31.248Z,11.18
2023-03-29T10:58:35.774Z,11.22
2023-03-29T11:00:40.104Z,11.27
2023-03-29T11:03:04.446Z,11.31
2023-03-29T11:05:20.458Z,11.31
2023-03-29T11:07:31.746Z,11.30
2023-03-29T11:10:21.620Z,11.28
2023-03-29T11:12:43.652Z,11.23
2023-03-29T11:14:58.653Z,11.49
2023-03-29T11:17:23.244Z,11.75
2023-03-29T11:19:29.359Z,11.76
2023-03-29T11:21:40.746Z,11.74
2023-03-29T11:24:01.544Z,11.64
2023-03-29T11:26:19.165Z,11.53
2023-03-29T11:28:24.304Z,11.55
2023-03-29T11:30:31.279Z,11.69
2023-03-29T11:32:48.796Z,11.74
2023-03-29T11:35:01.626Z,11.86
2023-03-29T11:36:59.075Z,11.84
2023-03-29T11:39:31.065Z,11.83
2023-03-29T11:41:33.273Z,11.85
2023-03-29T11:43:42.948Z,11.91
2023-03-29T11:45:41.929Z,11.94
2023-03-29T11:47:40.935Z,11.93
2023-03-29T11:49:45.759Z,11.88
2023-03-29T11:51:46.371Z,11.90
2023-03-29T11:53:59.400Z,11.92
2023-03-29T11:55:55.404Z,11.81
2023-03-29T11:57:56.661Z,11.75
2023-03-29T12:00:22.369Z,11.65
2023-03-29T12:02:29.112Z,11.58
2023-03-29T12:04:32.425Z,11.51
2023-03-29T12:06:37.874Z,11.49
2023-03-29T12:09:03.998Z,11.41
2023-03-29T12:11:19.580Z,11.37
2023-03-29T12:13:22.699Z,11.37
2023-03-29T12:15:20.527Z,11.35
2023-03-29T12:17:20.456Z,11.32
2023-03-29T12:19:23.441Z,11.33
2023-03-29T12:21:20.988Z,11.37
2023-03-29T12:23:16.384Z,11.47
2023-03-29T12:25:18.178Z,11.57
2023-03-29T12:27:35.272Z,11.64
2023-03-29T12:29:50.172Z,11.76
2023-03-29T12:32:04.352Z,11.91
2023-03-29T12:34:14.562Z,11.94
2023-03-29T12:36:32.470Z,11.85
2023-03-29T12:38:48.594Z,11.86
2023-03-29T12:41:11.549Z,11.89
2023-03-29T12:43:33.762Z,11.94
2023-03-29T12:45:51.341Z,11.98
2023-03-29T12:47:46.631Z,11.96
2023-03-29T12:49:42.648Z,11.90
2023-03-29T12:51:39.930Z,11.86
2023-03-29T12:53:43.026Z,11.78
2023-03-29T12:55:42.553Z,11.69
2023-03-29T12:57:44.294Z,11.65
2023-03-29T12:59:40.083Z,11.62
2023-03-29T13:01:41.472Z,11.60
2023-03-29T13:04:14.880Z,11.63
2023-03-29T13:06:10.764Z,11.65
2023-03-29T13:08:44.179Z,11.59
2023-03-29T13:10:41.957Z,11.44
2023-03-29T13:12:34.711Z,11.39
2023-03-29T13:14:32.003Z,11.38
2023-03-29T13:16:36.134Z,11.41
2023-03-29T13:18:34.079Z,11.41
2023-03-29T13:20:48.833Z,11.41
2023-03-29T13:23:37.746Z,11.44
2023-03-29T13:26:09.758Z,11.53
2023-03-29T13:28:17.585Z,11.64
2023-03-29T13:30:32.419Z,11.65
2023-03-29T13:32:47.213Z,11.64
2023-03-29T13:34:48.754Z,11.62
2023-03-29T13:37:01.860Z,11.62
2023-03-29T13:38:56.286Z,11.62
2023-03-29T13:40:53.119Z,11.61
2023-03-29T13:42:57.662Z,11.58
2023-03-29T13:45:15.107Z,11.59
2023-03-29T13:47:26.640Z,11.59
2023-03-29T13:49:39.510Z,11.61
2023-03-29T13:51:42.292Z,11.63
2023-03-29T13:53:40.259Z,11.69
2023-03-29T13:55:42.417Z,11.68
2023-03-29T13:57:40.872Z,11.66
2023-03-29T13:59:37.574Z,11.65
2023-03-29T14:01:45.891Z,11.64
2023-03-29T14:03:45.745Z,11.60
2023-03-29T14:05:41.854Z,11.58
2023-03-29T14:07:39.631Z,11.51
2023-03-29T14:09:36.137Z,11.41
2023-03-29T14:11:30.660Z,11.34
2023-03-29T14:13:25.566Z,11.27
2023-03-29T14:15:25.767Z,11.23
2023-03-29T14:20:50.173Z,11.29
2023-03-29T14:22:49.684Z,11.30
2023-03-29T14:25:05.945Z,11.32
2023-03-29T14:27:03.004Z,11.34
2023-03-29T14:29:19.048Z,11.34
2023-03-29T14:31:19.961Z,11.32
2023-03-29T14:33:32.698Z,11.27
2023-03-29T14:35:32.472Z,11.22
2023-03-29T14:37:28.680Z,11.17
2023-03-29T14:39:23.379Z,11.12
2023-03-29T14:41:16.673Z,11.11
2023-03-29T14:43:11.211Z,11.12
2023-03-29T14:45:06.426Z,11.15
2023-03-29T14:47:01.707Z,11.21
2023-03-29T14:48:56.498Z,11.26
2023-03-29T14:50:49.968Z,11.31
2023-03-29T14:52:44.990Z,11.36
2023-03-29T14:54:43.548Z,11.42
2023-03-29T14:56:36.898Z,11.43
2023-03-29T14:58:34.153Z,11.40
2023-03-29T15:00:31.498Z,11.34
2023-03-29T15:02:27.919Z,11.26
2023-03-29T15:04:21.285Z,11.20
2023-03-29T15:06:14.239Z,11.14
2023-03-29T15:08:13.447Z,11.09
2023-03-29T15:10:07.854Z,11.06
2023-03-29T15:12:03.649Z,10.98
2023-03-29T15:14:17.167Z,10.90
2023-03-29T15:16:14.457Z,10.78
2023-03-29T15:18:13.728Z,10.71
2023-03-29T15:20:18.648Z,10.67
2023-03-29T15:22:11.889Z,10.64
2023-03-29T15:24:05.964Z,10.61
2023-03-29T15:26:10.667Z,10.54
2023-03-29T15:28:04.458Z,10.48
2023-03-29T15:30:04.374Z,10.44
2023-03-29T15:31:59.209Z,10.40
2023-03-29T15:34:09.096Z,10.39
2023-03-29T15:36:05.868Z,10.35
2023-03-29T15:37:59.745Z,10.33
2023-03-29T15:39:53.579Z,10.31
2023-03-29T15:41:52.625Z,10.29
2023-03-29T15:43:46.339Z,10.28
2023-03-29T15:45:39.330Z,10.27
2023-03-29T15:47:32.269Z,10.26
2023-03-29T15:49:26.449Z,10.25
2023-03-29T15:51:19.460Z,10.24
2023-03-29T15:53:15.805Z,10.21
2023-03-29T15:55:09.663Z,10.20
2023-03-29T15:57:06.673Z,10.20
2023-03-29T15:58:59.648Z,10.18
2023-03-29T16:01:37.505Z,10.17
2023-03-29T16:03:30.704Z,10.16
2023-03-29T16:05:23.655Z,10.15
2023-03-29T16:07:18.526Z,10.14
2023-03-29T16:09:14.006Z,10.13
2023-03-29T16:11:06.903Z,10.11
2023-03-29T16:12:59.745Z,10.07
2023-03-29T16:14:52.706Z,10.06
2023-03-29T16:16:46.080Z,10.04
2023-03-29T16:18:39.111Z,10.02
2023-03-29T16:20:32.823Z,10.02
2023-03-29T16:22:26.331Z,10.01
2023-03-29T16:24:24.152Z,9.99
2023-03-29T16:26:17.278Z,9.98
2023-03-29T16:28:10.287Z,9.94
2023-03-29T16:30:03.514Z,9.91
2023-03-29T16:31:56.943Z,9.89
2023-03-29T16:33:50.060Z,9.87
2023-03-29T16:35:43.270Z,9.84
2023-03-29T16:37:36.569Z,9.82
2023-03-29T16:39:29.522Z,9.78
2023-03-29T16:41:23.280Z,9.76
2023-03-29T16:43:17.607Z,9.74
2023-03-29T16:45:17.578Z,9.71
2023-03-29T16:47:12.252Z,9.70
2023-03-29T16:49:07.890Z,9.69
2023-03-29T16:51:00.938Z,9.67
2023-03-29T16:52:54.288Z,9.65
2023-03-29T16:54:47.231Z,9.63
2023-03-29T16:56:40.667Z,9.61
2023-03-29T16:58:34.770Z,9.60
2023-03-29T17:00:27.837Z,9.60
2023-03-29T17:02:21.585Z,9.58
2023-03-29T17:04:15.691Z,9.57
2023-03-29T17:06:11.297Z,9.56
2023-03-29T17:08:05.118Z,9.55
2023-03-29T17:09:58.597Z,9.53
2023-03-29T17:11:51.568Z,9.48
2023-03-29T17:13:45.013Z,9.44
2023-03-29T17:15:39.727Z,9.41
2023-03-29T17:17:34.520Z,9.39
2023-03-29T17:19:27.741Z,9.36
2023-03-29T17:21:21.507Z,9.33
2023-03-29T17:23:14.872Z,9.30
2023-03-29T17:25:08.947Z,9.26
2023-03-29T17:27:01.997Z,9.21
2023-03-29T17:28:54.940Z,9.18
2023-03-29T17:30:48.033Z,9.13
2023-03-29T17:32:41.632Z,9.10
2023-03-29T17:34:34.912Z,9.07
2023-03-29T17:36:29.018Z,9.04
2023-03-29T17:38:22.913Z,9.01
2023-03-29T17:40:18.208Z,8.98
2023-03-29T17:42:11.823Z,8.94
2023-03-29T17:44:05.796Z,8.91
2023-03-29T17:45:58.947Z,8.88
2023-03-29T17:47:52.160Z,8.84
2023-03-29T17:49:45.568Z,8.80
2023-03-29T17:51:38.408Z,8.77
2023-03-29T17:53:31.462Z,8.74
2023-03-29T17:55:24.512Z,8.70
2023-03-29T17:57:19.391Z,8.67
2023-03-29T17:59:12.580Z,8.64
2023-03-29T18:01:14.788Z,8.63
2023-03-29T18:03:08.525Z,8.60
2023-03-29T18:05:02.156Z,8.58
2023-03-29T18:06:55.566Z,8.56
2023-03-29T18:08:51.020Z,8.54
2023-03-29T18:10:44.586Z,8.52
2023-03-29T18:12:37.938Z,8.49
2023-03-29T18:14:31.742Z,8.47
2023-03-29T18:16:26.430Z,8.45
2023-03-29T18:18:19.782Z,8.44
2023-03-29T18:20:17.313Z,8.42
2023-03-29T18:22:13.129Z,8.36
2023-03-29T18:24:06.412Z,8.29
2023-03-29T18:26:06.754Z,8.23
2023-03-29T18:28:01.450Z,8.17
2023-03-29T18:29:56.736Z,8.12
2023-03-29T18:31:50.837Z,8.07
2023-03-29T18:33:44.705Z,8.06
2023-03-29T18:35:39.379Z,8.05
2023-03-29T18:37:32.550Z,8.05
2023-03-29T18:39:25.947Z,8.04
2023-03-29T18:41:19.815Z,8.03
2023-03-29T18:43:12.762Z,8.02
2023-03-29T18:45:06.100Z,8.03
2023-03-29T18:46:58.969Z,8.02
2023-03-29T18:48:53.565Z,8.00
2023-03-29T18:50:47.071Z,8.00
2023-03-29T18:52:40.168Z,8.00
2023-03-29T18:54:33.428Z,7.99
2023-03-29T18:56:28.010Z,7.98
2023-03-29T18:58:24.080Z,7.97
2023-03-29T19:00:17.721Z,7.95
2023-03-29T19:02:11.133Z,7.94
2023-03-29T19:04:04.614Z,7.92
2023-03-29T19:05:58.493Z,7.90
2023-03-29T19:07:51.738Z,7.90
2023-03-29T19:09:45.414Z,7.89
2023-03-29T19:11:38.209Z,7.88
2023-03-29T19:13:31.403Z,7.86
2023-03-29T19:15:25.310Z,7.85
2023-03-29T19:17:18.324Z,7.82
2023-03-29T19:19:11.387Z,7.81
2023-03-29T19:21:04.327Z,7.81
2023-03-29T19:22:57.271Z,7.78
2023-03-29T19:24:50.221Z,7.77
2023-03-29T19:26:44.513Z,7.75
2023-03-29T19:28:37.411Z,7.74
2023-03-29T19:30:31.425Z,7.72
2023-03-29T19:32:24.381Z,7.72
2023-03-29T19:34:19.783Z,7.72
2023-03-29T19:36:12.773Z,7.70
2023-03-29T19:38:05.772Z,7.69
2023-03-29T19:39:58.860Z,7.68
2023-03-29T19:41:51.767Z,7.67
2023-03-29T19:43:44.619Z,7.66
2023-03-29T19:45:37.457Z,7.65
2023-03-29T19:47:30.735Z,7.63
2023-03-29T19:49:23.557Z,7.62
2023-03-29T19:51:16.822Z,7.60
2023-03-29T19:53:10.885Z,7.58
2023-03-29T19:55:04.246Z,7.56
2023-03-29T19:56:57.493Z,7.55
2023-03-29T19:58:51.172Z,7.56
2023-03-29T20:00:44.109Z,7.57
2023-03-29T20:02:36.985Z,7.57
2023-03-29T20:04:33.366Z,7.57
2023-03-29T20:06:26.640Z,7.57
2023-03-29T20:08:19.488Z,7.57
2023-03-29T20:10:12.547Z,7.58
2023-03-29T20:12:05.492Z,7.59
2023-03-29T20:13:58.537Z,7.58
2023-03-29T20:15:51.791Z,7.58
2023-03-29T20:17:45.066Z,7.57
2023-03-29T20:19:37.894Z,7.56
2023-03-29T20:21:33.731Z,7.57
2023-03-29T20:23:26.874Z,7.57
2023-03-29T20:25:21.326Z,7.56
2023-03-29T20:27:16.037Z,7.55
2023-03-29T20:29:08.893Z,7.54
2023-03-29T20:31:06.938Z,7.52
2023-03-29T20:32:59.841Z,7.50
2023-03-29T20:34:56.252Z,7.49
2023-03-29T20:36:55.664Z,7.49
2023-03-29T20:38:50.431Z,7.47
2023-03-29T20:40:45.374Z,7.48
2023-03-29T20:42:39.855Z,7.49
2023-03-29T20:44:35.336Z,7.48
2023-03-29T20:46:35.928Z,7.47
2023-03-29T20:48:32.686Z,7.46
2023-03-29T20:50:30.673Z,7.46
2023-03-29T20:52:24.714Z,7.44
2023-03-29T20:54:18.386Z,7.44
2023-03-29T20:56:13.912Z,7.45
2023-03-29T20:58:08.441Z,7.44
2023-03-29T21:00:03.116Z,7.44
2023-03-29T21:02:00.491Z,7.43
2023-03-29T21:03:54.120Z,7.44
2023-03-29T21:05:47.128Z,7.44
2023-03-29T21:07:40.072Z,7.43
2023-03-29T21:09:34.341Z,7.43
2023-03-29T21:11:27.822Z,7.43
2023-03-29T21:13:20.965Z,7.43
2023-03-29T21:15:14.261Z,7.43
2023-03-29T21:17:09.484Z,7.43
2023-03-29T21:19:02.508Z,7.44
2023-03-29T21:20:55.419Z,7.45
2023-03-29T21:22:48.378Z,7.45
2023-03-29T21:24:41.538Z,7.43
2023-03-29T21:26:37.458Z,7.42
2023-03-29T21:28:31.164Z,7.42
2023-03-29T21:30:24.152Z,7.43
2023-03-29T21:32:17.099Z,7.66
2023-03-29T21:34:10.208Z,7.96
2023-03-29T21:36:03.996Z,8.11
2023-03-29T21:37:58.048Z,8.07
2023-03-29T21:42:15.633Z,7.92
2023-03-29T21:44:08.586Z,7.83
2023-03-29T21:46:01.984Z,7.75
2023-03-29T21:47:55.732Z,7.69
2023-03-29T21:49:48.856Z,7.61
2023-03-29T21:51:41.704Z,7.56
2023-03-29T21:53:35.371Z,7.53
2023-03-29T21:55:28.424Z,7.47
2023-03-29T21:57:21.431Z,7.42
2023-03-29T21:59:14.530Z,7.39
2023-03-29T22:01:10.229Z,7.36
2023-03-29T22:03:03.376Z,7.35
2023-03-29T22:04:56.851Z,7.34
2023-03-29T22:06:49.675Z,7.32
2023-03-29T22:08:42.543Z,7.29
2023-03-29T22:10:37.989Z,7.28
2023-03-29T22:12:37.918Z,7.27
2023-03-29T22:14:35.173Z,7.26
2023-03-29T22:16:28.626Z,7.26
2023-03-29T22:18:22.007Z,7.25
2023-03-29T22:20:15.369Z,7.23
2023-03-29T22:22:13.781Z,7.21
2023-03-29T22:24:07.430Z,7.21
2023-03-29T22:26:05.186Z,7.19
2023-03-29T22:27:58.030Z,7.19
2023-03-29T22:29:50.876Z,7.17
2023-03-29T22:31:43.963Z,7.17
2023-03-29T22:33:37.796Z,7.17
2023-03-29T22:35:30.778Z,7.15
2023-03-29T22:37:24.110Z,7.14
2023-03-29T22:39:17.356Z,7.14
2023-03-29T22:41:10.516Z,7.11
2023-03-29T22:43:05.277Z,7.11
2023-03-29T22:44:58.381Z,7.09
2023-03-29T22:46:51.717Z,7.09
2023-03-29T22:48:45.581Z,7.06
2023-03-29T22:50:38.733Z,7.05
2023-03-29T22:52:31.598Z,7.05
2023-03-29T22:54:24.555Z,7.05
2023-03-29T22:56:17.794Z,7.05
2023-03-29T22:58:10.838Z,7.05
2023-03-29T23:00:09.270Z,7.04
2023-03-29T23:02:02.391Z,7.03
2023-03-29T23:03:55.540Z,7.01
2023-03-29T23:05:52.655Z,7.00
2023-03-29T23:07:45.606Z,7.00
2023-03-29T23:09:38.452Z,6.98
2023-03-29T23:11:31.715Z,6.98
2023-03-29T23:13:26.087Z,6.98
2023-03-29T23:15:22.873Z,6.98
2023-03-29T23:17:19.397Z,6.99
2023-03-29T23:19:12.314Z,6.98
2023-03-29T23:21:06.074Z,6.98
2023-03-29T23:23:00.151Z,6.97
2023-03-29T23:24:53.511Z,6.98
2023-03-29T23:26:49.137Z,6.97
2023-03-29T23:28:42.481Z,6.96
2023-03-29T23:30:38.608Z,6.95
2023-03-29T23:32:31.617Z,6.91
2023-03-29T23:34:24.703Z,6.88
2023-03-29T23:36:19.190Z,6.85
2023-03-29T23:38:12.133Z,6.81
2023-03-29T23:40:11.816Z,6.79
2023-03-29T23:42:04.784Z,6.75
2023-03-29T23:43:57.849Z,6.71
2023-03-29T23:45:59.696Z,6.70
2023-03-29T23:47:53.472Z,6.67
2023-03-29T23:49:47.030Z,6.64
2023-03-29T23:51:42.746Z,6.63
2023-03-29T23:53:36.196Z,6.61
2023-03-29T23:55:29.154Z,6.61
2023-03-29T23:57:22.050Z,6.60
2023-03-29T23:59:14.935Z,6.62
